createdAt,value
2023-02-19T00:01:15.116Z,9.7
2023-02-19T00:20:31.250Z,9.6
2023-02-19T00:39:51.009Z,9.7
2023-02-19T00:59:10.498Z,9.7
2023-02-19T01:18:29.800Z,9.7
2023-02-19T01:37:48.239Z,9.8
2023-02-19T01:57:05.397Z,9.7
2023-02-19T02:16:26.340Z,9.7
2023-02-19T02:35:43.585Z,9.7
2023-02-19T02:55:02.765Z,9.7
2023-02-19T03:14:21.655Z,9.6
2023-02-19T03:33:40.956Z,9.7
2023-02-19T03:53:00.108Z,9.6
2023-02-19T04:12:19.384Z,9.5
2023-02-19T04:31:39.668Z,9.5
2023-02-19T04:50:59.975Z,9.5
2023-02-19T05:10:18.902Z,9.5
2023-02-19T05:29:36.528Z,9.5
2023-02-19T05:48:56.544Z,9.4
2023-02-19T06:08:15.141Z,9.4
2023-02-19T06:27:35.173Z,9.2
2023-02-19T06:46:53.238Z,9.2
2023-02-19T07:06:12.786Z,9.1
2023-02-19T07:25:32.811Z,9.1
2023-02-19T07:44:52.078Z,9.1
2023-02-19T08:04:12.064Z,9.1
2023-02-19T08:23:29.818Z,9
2023-02-19T08:42:49.503Z,8.9
2023-02-19T09:02:11.048Z,9.1
2023-02-19T09:21:28.885Z,9.2
2023-02-19T09:40:48.474Z,9.2
2023-02-19T10:00:08.559Z,9.3
2023-02-19T10:19:27.045Z,9.6
2023-02-19T10:38:46.550Z,9.8
2023-02-19T10:58:04.385Z,9.6
2023-02-19T11:17:23.482Z,9.5
2023-02-19T11:36:43.842Z,9.3
2023-02-19T11:56:02.757Z,9.6
2023-02-19T12:15:24.556Z,9.9
2023-02-19T12:34:42.675Z,9.7
2023-02-19T12:54:02.497Z,9.6
2023-02-19T13:13:20.262Z,9.4
2023-02-19T13:32:38.583Z,9.5
2023-02-19T13:51:55.717Z,9.3
2023-02-19T14:11:17.644Z,9.5
2023-02-19T14:30:35.363Z,9.6
2023-02-19T14:49:53.401Z,9.5
2023-02-19T15:09:11.888Z,9.3
2023-02-19T15:28:30.584Z,9.2
2023-02-19T15:47:48.991Z,9
2023-02-19T16:07:08.008Z,9
2023-02-19T16:26:27.881Z,8.9
2023-02-19T16:45:50.180Z,8.8
2023-02-19T17:05:05.743Z,8.6
2023-02-19T17:24:25.540Z,8.6
2023-02-19T17:43:45.476Z,8.7
2023-02-19T18:03:02.926Z,8.6
2023-02-19T18:22:19.726Z,8.2
2023-02-19T18:41:38.129Z,8.3
2023-02-19T19:00:57.888Z,8
2023-02-19T19:20:15.704Z,7.9
2023-02-19T19:39:35.706Z,7.9
2023-02-19T19:58:54.785Z,7.8
2023-02-19T20:18:12.598Z,7.5
2023-02-19T20:37:32.199Z,7.6
2023-02-19T20:56:53.549Z,7.7
2023-02-19T21:16:12.165Z,7.5
2023-02-19T21:35:29.303Z,7.1
2023-02-19T21:54:48.905Z,6.9
2023-02-19T22:14:05.190Z,6.6
2023-02-19T22:33:24.168Z,6.7
2023-02-19T22:52:34.372Z,6.2
2023-02-19T23:11:54.164Z,6.2
2023-02-19T23:31:11.951Z,5.9
2023-02-19T23:50:31.228Z,5.6
